createdAt,value
2022-12-05T00:01:22.538Z,9.09
2022-12-05T00:03:51.286Z,8.85
2022-12-05T00:06:18.821Z,8.73
2022-12-05T00:08:46.636Z,8.96
2022-12-05T00:11:44.624Z,8.28
2022-12-05T00:14:13.363Z,8.29
2022-12-05T00:16:42.632Z,8.80
2022-12-05T00:19:14.795Z,8.99
2022-12-05T00:21:42.396Z,8.64
2022-12-05T00:24:12.907Z,8.82
2022-12-05T00:26:39.945Z,8.72
2022-12-05T00:29:06.658Z,8.88
2022-12-05T00:31:33.654Z,8.49
2022-12-05T00:34:02.270Z,8.80
2022-12-05T00:36:32.292Z,8.81
2022-12-05T00:39:01.405Z,8.90
2022-12-05T00:41:29.937Z,8.77
2022-12-05T00:43:59.558Z,8.54
2022-12-05T00:46:29.371Z,8.71
2022-12-05T00:48:58.708Z,8.71
2022-12-05T00:51:44.732Z,8.89
2022-12-05T00:54:16.001Z,8.67
2022-12-05T00:56:44.249Z,8.69
2022-12-05T00:59:19.689Z,8.74
2022-12-05T01:01:48.115Z,8.80
2022-12-05T01:04:20.625Z,8.95
2022-12-05T01:06:48.119Z,8.91
2022-12-05T01:09:17.749Z,8.86
2022-12-05T01:11:45.033Z,8.51
2022-12-05T01:14:14.845Z,8.61
2022-12-05T01:16:43.968Z,8.60
2022-12-05T01:19:25.960Z,8.60
2022-12-05T01:21:53.424Z,8.47
2022-12-05T01:24:21.964Z,8.38
2022-12-05T01:26:49.151Z,8.24
2022-12-05T01:29:20.795Z,8.47
2022-12-05T01:31:48.436Z,8.53
2022-12-05T01:34:17.068Z,8.54
2022-12-05T01:36:44.965Z,8.62
2022-12-05T01:39:12.748Z,8.26
2022-12-05T01:41:44.192Z,8.60
2022-12-05T01:44:11.085Z,8.68
2022-12-05T01:46:44.041Z,8.83
2022-12-05T01:49:16.956Z,8.90
2022-12-05T01:51:47.430Z,8.77
2022-12-05T01:54:16.611Z,8.70
2022-12-05T01:56:48.700Z,8.67
2022-12-05T01:59:17.856Z,8.49
2022-12-05T02:01:44.989Z,8.65
2022-12-05T02:04:11.974Z,8.61
2022-12-05T02:06:39.930Z,8.61
2022-12-05T02:09:07.089Z,8.59
2022-12-05T02:11:37.074Z,8.65
2022-12-05T02:14:23.132Z,8.75
2022-12-05T02:16:59.499Z,8.67
2022-12-05T02:19:51.228Z,8.42
2022-12-05T02:22:38.916Z,8.64
2022-12-05T02:25:25.218Z,8.79
2022-12-05T02:28:12.338Z,8.78
2022-12-05T02:30:48.148Z,8.29
2022-12-05T02:33:30.604Z,8.37
2022-12-05T02:36:05.986Z,8.54
2022-12-05T02:38:39.722Z,8.74
2022-12-05T02:41:12.588Z,8.88
2022-12-05T02:43:51.830Z,8.51
2022-12-05T02:46:22.641Z,8.71
2022-12-05T02:48:55.233Z,8.90
2022-12-05T02:51:25.844Z,8.99
2022-12-05T02:53:57.159Z,9.03
2022-12-05T02:56:25.683Z,8.62
2022-12-05T02:58:55.028Z,8.76
2022-12-05T03:01:25.606Z,8.58
2022-12-05T03:03:52.989Z,8.81
2022-12-05T03:06:51.681Z,8.81
2022-12-05T03:09:28.001Z,8.71
2022-12-05T03:12:32.994Z,8.87
2022-12-05T03:15:05.218Z,8.83
2022-12-05T03:17:36.998Z,8.79
2022-12-05T03:20:09.981Z,8.74
2022-12-05T03:23:03.876Z,8.84
2022-12-05T03:25:41.350Z,8.94
2022-12-05T03:28:37.454Z,8.90
2022-12-05T03:31:10.594Z,8.69
2022-12-05T03:33:43.151Z,8.84
2022-12-05T03:36:19.455Z,8.73
2022-12-05T03:38:53.901Z,8.86
2022-12-05T03:41:43.172Z,9.08
2022-12-05T03:44:24.570Z,9.09
2022-12-05T03:47:00.241Z,9.11
2022-12-05T03:49:34.723Z,9.27
2022-12-05T03:52:04.454Z,9.38
2022-12-05T03:54:45.430Z,9.25
2022-12-05T03:57:23.620Z,9.23
2022-12-05T04:00:01.673Z,8.91
2022-12-05T04:02:31.940Z,9.18
2022-12-05T04:05:06.975Z,9.07
2022-12-05T04:07:38.079Z,9.11
2022-12-05T04:10:17.853Z,9.21
2022-12-05T04:12:46.678Z,8.86
2022-12-05T04:15:27.591Z,9.01
2022-12-05T04:17:54.649Z,8.94
2022-12-05T04:20:41.917Z,9.08
2022-12-05T04:23:10.297Z,9.11
2022-12-05T04:25:48.753Z,9.18
2022-12-05T04:28:27.458Z,9.30
2022-12-05T04:31:24.718Z,9.30
2022-12-05T04:33:58.596Z,9.28
2022-12-05T04:36:36.887Z,9.22
2022-12-05T04:39:10.725Z,9.25
2022-12-05T04:41:45.316Z,8.89
2022-12-05T04:44:16.792Z,9.03
2022-12-05T04:46:46.697Z,9.07
2022-12-05T04:49:19.791Z,9.29
2022-12-05T04:51:50.285Z,9.15
2022-12-05T04:54:22.623Z,9.29
2022-12-05T04:57:00.898Z,9.25
2022-12-05T04:59:28.116Z,9.28
2022-12-05T05:01:59.779Z,9.35
2022-12-05T05:04:37.926Z,9.04
2022-12-05T05:07:09.637Z,9.34
2022-12-05T05:09:37.715Z,9.30
2022-12-05T05:12:05.200Z,9.18
2022-12-05T05:14:33.248Z,9.19
2022-12-05T05:17:00.097Z,9.02
2022-12-05T05:19:27.219Z,9.10
2022-12-05T05:21:54.253Z,8.45
2022-12-05T05:24:23.215Z,8.63
2022-12-05T05:26:56.897Z,8.53
2022-12-05T05:29:24.352Z,8.69
2022-12-05T05:31:51.271Z,8.95
2022-12-05T05:34:18.165Z,8.89
2022-12-05T05:36:45.168Z,8.92
2022-12-05T05:39:15.376Z,9.23
2022-12-05T05:41:43.175Z,9.50
2022-12-05T05:44:10.300Z,9.48
2022-12-05T05:46:37.702Z,9.56
2022-12-05T05:49:05.325Z,9.26
2022-12-05T05:51:32.709Z,9.03
2022-12-05T05:54:00.864Z,9.32
2022-12-05T05:56:28.720Z,9.23
2022-12-05T05:59:00.576Z,9.34
2022-12-05T06:01:28.331Z,9.31
2022-12-05T06:03:55.432Z,9.44
2022-12-05T06:06:23.670Z,9.05
2022-12-05T06:08:50.619Z,9.15
2022-12-05T06:11:25.209Z,9.22
2022-12-05T06:13:54.882Z,9.16
2022-12-05T06:16:21.916Z,9.09
2022-12-05T06:18:49.974Z,9.29
2022-12-05T06:21:17.764Z,9.00
2022-12-05T06:23:44.696Z,9.07
2022-12-05T06:26:14.063Z,9.23
2022-12-05T06:28:41.609Z,9.29
2022-12-05T06:31:15.843Z,9.53
2022-12-05T06:33:43.661Z,9.30
2022-12-05T06:36:13.526Z,9.56
2022-12-05T06:38:42.209Z,9.60
2022-12-05T06:41:13.835Z,9.55
2022-12-05T06:43:40.829Z,9.59
2022-12-05T06:46:09.608Z,9.57
2022-12-05T06:48:36.775Z,9.52
2022-12-05T06:51:04.250Z,9.55
2022-12-05T06:53:31.149Z,8.81
2022-12-05T06:56:00.799Z,9.79
2022-12-05T06:58:28.155Z,9.81
2022-12-05T07:01:14.209Z,9.86
2022-12-05T07:03:41.243Z,9.79
2022-12-05T07:06:08.632Z,9.72
2022-12-05T07:08:36.066Z,9.79
2022-12-05T07:11:03.501Z,9.69
2022-12-05T07:13:30.287Z,9.38
2022-12-05T07:15:59.290Z,9.68
2022-12-05T07:18:26.873Z,9.39
2022-12-05T07:21:17.337Z,9.37
2022-12-05T07:23:45.926Z,9.78
2022-12-05T07:26:15.877Z,9.61
2022-12-05T07:28:43.022Z,9.86
2022-12-05T07:31:12.124Z,9.98
2022-12-05T07:33:39.118Z,9.67
2022-12-05T07:36:11.237Z,9.68
2022-12-05T07:38:39.710Z,9.49
2022-12-05T07:41:13.486Z,9.65
2022-12-05T07:43:41.256Z,9.77
2022-12-05T07:46:11.860Z,9.97
2022-12-05T07:48:39.672Z,9.84
2022-12-05T07:51:08.267Z,9.68
2022-12-05T07:53:35.440Z,9.60
2022-12-05T07:56:05.609Z,9.71
2022-12-05T07:58:33.560Z,9.96
2022-12-05T08:01:12.624Z,9.88
2022-12-05T08:03:40.178Z,9.95
2022-12-05T08:06:19.926Z,10.03
2022-12-05T08:08:50.242Z,9.93
2022-12-05T08:11:30.924Z,10.15
2022-12-05T08:13:58.376Z,10.08
2022-12-05T08:16:28.641Z,9.94
2022-12-05T08:19:04.512Z,10.19
2022-12-05T08:21:31.453Z,10.30
2022-12-05T08:23:58.385Z,10.28
2022-12-05T08:26:30.746Z,10.19
2022-12-05T08:29:00.631Z,10.44
2022-12-05T08:31:30.231Z,10.53
2022-12-05T08:34:00.080Z,10.43
2022-12-05T08:36:28.784Z,10.47
2022-12-05T08:38:57.674Z,10.50
2022-12-05T08:41:28.751Z,10.62
2022-12-05T08:44:05.981Z,10.51
2022-12-05T08:46:35.672Z,10.24
2022-12-05T08:49:04.145Z,10.51
2022-12-05T08:51:31.305Z,10.61
2022-12-05T08:53:58.221Z,10.47
2022-12-05T08:56:27.383Z,10.28
2022-12-05T08:59:01.196Z,10.70
2022-12-05T09:01:32.740Z,10.84
2022-12-05T09:04:01.142Z,10.82
2022-12-05T09:06:29.710Z,10.82
2022-12-05T09:09:02.762Z,11.02
2022-12-05T09:11:32.409Z,10.65
2022-12-05T09:14:00.921Z,10.97
2022-12-05T09:16:36.564Z,11.03
2022-12-05T09:19:10.868Z,11.02
2022-12-05T09:21:37.733Z,11.03
2022-12-05T09:24:04.446Z,10.71
2022-12-05T09:26:31.446Z,10.88
2022-12-05T09:28:58.536Z,11.21
2022-12-05T09:31:27.539Z,11.19
2022-12-05T09:33:54.839Z,11.14
2022-12-05T09:36:28.230Z,10.89
2022-12-05T09:38:59.022Z,11.00
2022-12-05T09:42:03.395Z,10.79
2022-12-05T09:44:42.604Z,10.89
2022-12-05T09:47:23.263Z,11.10
2022-12-05T09:50:01.223Z,10.92
2022-12-05T09:52:31.716Z,11.14
2022-12-05T09:55:06.361Z,10.88
2022-12-05T09:57:42.939Z,10.83
2022-12-05T10:00:10.856Z,10.91
2022-12-05T10:03:10.383Z,10.73
2022-12-05T10:06:14.630Z,11.10
2022-12-05T10:08:56.817Z,11.03
2022-12-05T10:11:46.618Z,11.22
2022-12-05T10:14:35.816Z,10.94
2022-12-05T10:17:15.324Z,10.98
2022-12-05T10:19:45.276Z,11.02
2022-12-05T10:22:24.833Z,11.11
2022-12-05T10:24:56.205Z,10.82
2022-12-05T10:27:54.828Z,10.83
2022-12-05T10:30:24.427Z,10.84
2022-12-05T10:33:07.910Z,10.95
2022-12-05T10:35:39.324Z,10.88
2022-12-05T10:38:24.901Z,11.09
2022-12-05T10:40:55.327Z,10.90
2022-12-05T10:43:28.698Z,10.95
2022-12-05T10:45:56.192Z,10.99
2022-12-05T10:48:24.030Z,11.20
2022-12-05T10:50:53.826Z,11.32
2022-12-05T10:53:28.532Z,11.15
2022-12-05T10:56:28.627Z,11.21
2022-12-05T10:58:55.869Z,11.28
2022-12-05T11:01:24.374Z,11.07
2022-12-05T11:03:58.598Z,10.84
2022-12-05T11:06:30.367Z,10.83
2022-12-05T11:09:05.041Z,11.02
2022-12-05T11:11:33.871Z,10.99
2022-12-05T11:14:22.489Z,10.99
2022-12-05T11:16:58.335Z,10.81
2022-12-05T11:19:38.926Z,10.69
2022-12-05T11:22:08.198Z,10.60
2022-12-05T11:24:39.209Z,10.52
2022-12-05T11:27:18.293Z,10.68
2022-12-05T11:29:58.272Z,10.52
2022-12-05T11:32:28.868Z,10.37
2022-12-05T11:35:12.045Z,10.43
2022-12-05T11:38:02.229Z,10.74
2022-12-05T11:41:01.652Z,10.52
2022-12-05T11:43:52.611Z,10.65
2022-12-05T11:46:54.680Z,10.84
2022-12-05T11:49:42.845Z,10.71
2022-12-05T11:52:40.884Z,10.60
2022-12-05T11:55:19.225Z,10.68
2022-12-05T11:58:08.023Z,10.22
2022-12-05T12:00:53.304Z,10.56
2022-12-05T12:03:44.682Z,10.31
2022-12-05T12:06:27.520Z,10.30
2022-12-05T12:09:17.304Z,10.12
2022-12-05T12:11:55.933Z,10.32
2022-12-05T12:14:41.311Z,10.51
2022-12-05T12:17:25.214Z,10.21
2022-12-05T12:20:09.854Z,10.07
2022-12-05T12:22:59.108Z,9.78
2022-12-05T12:25:34.861Z,10.06
2022-12-05T12:28:29.542Z,9.85
2022-12-05T12:31:10.834Z,9.41
2022-12-05T12:33:49.785Z,9.79
2022-12-05T12:36:28.558Z,9.71
2022-12-05T12:39:21.673Z,9.72
2022-12-05T12:42:12.932Z,9.69
2022-12-05T12:44:51.321Z,9.81
2022-12-05T12:47:26.881Z,9.23
2022-12-05T12:50:15.187Z,9.44
2022-12-05T12:52:56.735Z,10.00
2022-12-05T12:55:56.221Z,10.35
2022-12-05T12:58:45.275Z,10.07
2022-12-05T13:01:17.875Z,9.90
2022-12-05T13:04:24.963Z,9.57
2022-12-05T13:06:58.256Z,9.48
2022-12-05T13:09:31.918Z,9.34
2022-12-05T13:12:04.965Z,9.60
2022-12-05T13:14:36.486Z,9.47
2022-12-05T13:17:06.843Z,9.50
2022-12-05T13:19:46.493Z,9.63
2022-12-05T13:22:15.176Z,9.89
2022-12-05T13:24:42.852Z,9.85
2022-12-05T13:27:16.868Z,10.08
2022-12-05T13:29:58.034Z,9.91
2022-12-05T13:32:33.185Z,9.92
2022-12-05T13:35:57.017Z,10.21
2022-12-05T13:38:48.469Z,10.41
2022-12-05T13:41:34.423Z,10.16
2022-12-05T13:44:12.078Z,10.27
2022-12-05T13:46:42.916Z,9.74
2022-12-05T13:49:23.565Z,9.57
2022-12-05T13:51:50.894Z,9.61
2022-12-05T13:54:28.257Z,9.63
2022-12-05T13:57:02.228Z,9.74
2022-12-05T14:00:07.350Z,10.22
2022-12-05T14:02:46.054Z,10.05
2022-12-05T14:05:19.010Z,9.97
2022-12-05T14:07:51.400Z,9.97
2022-12-05T14:10:23.216Z,10.06
2022-12-05T14:13:15.675Z,9.82
2022-12-05T14:15:45.716Z,9.60
2022-12-05T14:18:30.702Z,9.81
2022-12-05T14:21:17.953Z,10.00
2022-12-05T14:24:00.004Z,9.75
2022-12-05T14:26:35.474Z,10.04
2022-12-05T14:29:22.538Z,10.07
2022-12-05T14:32:04.855Z,10.12
2022-12-05T14:34:34.907Z,9.69
2022-12-05T14:37:28.170Z,10.16
2022-12-05T14:39:59.047Z,9.81
2022-12-05T14:42:43.046Z,10.15
2022-12-05T14:45:34.316Z,9.95
2022-12-05T14:48:05.581Z,10.02
2022-12-05T14:50:33.772Z,9.89
2022-12-05T14:53:20.785Z,10.06
2022-12-05T14:55:56.313Z,10.03
2022-12-05T14:58:46.415Z,10.00
2022-12-05T15:01:24.056Z,10.20
2022-12-05T15:04:00.176Z,9.69
2022-12-05T15:06:27.673Z,9.77
2022-12-05T15:09:14.492Z,9.74
2022-12-05T15:11:45.599Z,9.41
2022-12-05T15:14:29.112Z,9.41
2022-12-05T15:17:01.288Z,9.45
2022-12-05T15:19:33.339Z,9.37
2022-12-05T15:22:06.269Z,9.62
2022-12-05T15:24:42.184Z,9.68
2022-12-05T15:27:11.969Z,9.48
2022-12-05T15:29:41.186Z,9.66
2022-12-05T15:32:11.007Z,9.90
2022-12-05T15:35:02.457Z,10.08
2022-12-05T15:37:35.814Z,9.96
2022-12-05T15:40:14.207Z,10.02
2022-12-05T15:42:41.016Z,10.17
2022-12-05T15:45:13.836Z,10.06
2022-12-05T15:47:44.391Z,10.09
2022-12-05T15:50:16.412Z,10.22
2022-12-05T15:53:07.072Z,9.87
2022-12-05T15:55:40.074Z,10.03
2022-12-05T15:58:24.080Z,9.92
2022-12-05T16:00:56.424Z,9.91
2022-12-05T16:03:53.995Z,9.94
2022-12-05T16:07:01.188Z,9.63
2022-12-05T16:09:32.300Z,9.83
2022-12-05T16:12:02.560Z,9.46
2022-12-05T16:17:22.462Z,9.89
2022-12-05T16:19:49.670Z,9.93
2022-12-05T16:22:22.033Z,9.84
2022-12-05T16:25:00.526Z,9.87
2022-12-05T16:27:34.551Z,9.80
2022-12-05T16:30:07.162Z,9.92
2022-12-05T16:32:35.362Z,9.87
2022-12-05T16:35:02.456Z,9.50
2022-12-05T16:37:30.574Z,9.68
2022-12-05T16:39:57.714Z,9.48
2022-12-05T16:42:26.703Z,9.69
2022-12-05T16:45:05.134Z,9.41
2022-12-05T16:47:41.073Z,9.34
2022-12-05T16:50:25.485Z,9.27
2022-12-05T16:53:01.987Z,9.32
2022-12-05T16:55:32.034Z,9.55
2022-12-05T16:58:03.962Z,9.30
2022-12-05T17:00:34.154Z,9.17
2022-12-05T17:03:25.782Z,9.04
2022-12-05T17:05:47.772Z,8.83
2022-12-05T17:08:14.509Z,9.23
2022-12-05T17:10:42.651Z,9.34
2022-12-05T17:13:15.097Z,9.70
2022-12-05T17:15:42.636Z,9.95
2022-12-05T17:18:18.192Z,9.23
2022-12-05T17:20:50.421Z,9.40
2022-12-05T17:23:17.821Z,9.55
2022-12-05T17:25:48.759Z,9.74
2022-12-05T17:28:15.820Z,9.75
2022-12-05T17:30:42.677Z,10.09
2022-12-05T17:33:11.836Z,9.88
2022-12-05T17:35:39.011Z,10.17
2022-12-05T17:38:05.858Z,10.11
2022-12-05T17:40:34.279Z,10.08
2022-12-05T17:43:01.243Z,9.59
2022-12-05T17:45:27.969Z,9.31
2022-12-05T17:47:55.989Z,8.97
2022-12-05T17:50:24.511Z,9.06
2022-12-05T17:52:54.430Z,9.52
2022-12-05T17:55:28.434Z,9.33
2022-12-05T17:57:55.645Z,9.45
2022-12-05T18:00:24.097Z,9.76
2022-12-05T18:02:52.832Z,9.49
2022-12-05T18:05:20.126Z,9.51
2022-12-05T18:07:47.889Z,9.78
2022-12-05T18:10:18.189Z,9.65
2022-12-05T18:12:46.168Z,9.86
2022-12-05T18:15:14.202Z,9.74
2022-12-05T18:17:41.880Z,9.65
2022-12-05T18:20:11.717Z,9.44
2022-12-05T18:22:38.670Z,9.57
2022-12-05T18:25:06.341Z,9.41
2022-12-05T18:27:34.793Z,9.40
2022-12-05T18:30:03.734Z,9.55
2022-12-05T18:32:30.600Z,9.29
2022-12-05T18:34:59.302Z,9.05
2022-12-05T18:37:28.221Z,9.45
2022-12-05T18:39:56.498Z,9.61
2022-12-05T18:42:23.511Z,9.65
2022-12-05T18:44:50.395Z,9.76
2022-12-05T18:47:17.151Z,9.46
2022-12-05T18:49:43.906Z,9.68
2022-12-05T18:52:10.837Z,9.50
2022-12-05T18:54:37.887Z,9.61
2022-12-05T18:57:04.763Z,9.65
2022-12-05T18:59:31.502Z,9.20
2022-12-05T19:02:00.497Z,9.30
2022-12-05T19:04:28.781Z,9.56
2022-12-05T19:06:58.749Z,9.79
2022-12-05T19:09:29.692Z,9.86
2022-12-05T19:11:58.688Z,9.70
2022-12-05T19:14:27.716Z,9.28
2022-12-05T19:16:59.996Z,9.57
2022-12-05T19:19:28.169Z,9.33
2022-12-05T19:21:55.921Z,9.05
2022-12-05T19:24:22.851Z,9.46
2022-12-05T19:26:49.626Z,9.32
2022-12-05T19:29:17.125Z,9.62
2022-12-05T19:31:44.585Z,9.50
2022-12-05T19:34:11.406Z,9.35
2022-12-05T19:36:46.269Z,9.42
2022-12-05T19:39:18.861Z,9.02
2022-12-05T19:41:46.193Z,9.23
2022-12-05T19:44:13.772Z,8.92
2022-12-05T19:46:41.141Z,9.01
2022-12-05T19:49:10.988Z,9.20
2022-12-05T19:51:38.337Z,9.32
2022-12-05T19:54:06.270Z,9.52
2022-12-05T19:56:34.942Z,9.24
2022-12-05T19:59:02.651Z,9.20
2022-12-05T20:01:32.448Z,9.23
2022-12-05T20:04:01.540Z,9.31
2022-12-05T20:06:37.658Z,9.79
2022-12-05T20:09:07.042Z,9.74
2022-12-05T20:11:33.950Z,9.30
2022-12-05T20:14:01.868Z,9.16
2022-12-05T20:16:29.499Z,9.72
2022-12-05T20:18:59.342Z,9.19
2022-12-05T20:21:30.289Z,9.30
2022-12-05T20:23:58.897Z,9.72
2022-12-05T20:26:28.641Z,9.82
2022-12-05T20:29:02.772Z,9.14
2022-12-05T20:31:32.028Z,9.33
2022-12-05T20:34:01.704Z,9.63
2022-12-05T20:36:31.369Z,9.96
2022-12-05T20:39:01.183Z,9.23
2022-12-05T20:41:29.004Z,9.05
2022-12-05T20:44:01.028Z,9.21
2022-12-05T20:46:28.992Z,9.51
2022-12-05T20:48:59.306Z,9.16
2022-12-05T20:51:28.706Z,9.56
2022-12-05T20:53:55.590Z,9.80
2022-12-05T20:56:28.482Z,9.87
2022-12-05T20:58:57.750Z,9.36
2022-12-05T21:01:26.607Z,8.89
2022-12-05T21:03:54.204Z,9.31
2022-12-05T21:06:31.960Z,9.54
2022-12-05T21:09:00.141Z,9.06
2022-12-05T21:11:28.970Z,9.09
2022-12-05T21:13:57.765Z,9.04
2022-12-05T21:16:24.970Z,9.10
2022-12-05T21:18:52.696Z,9.34
2022-12-05T21:21:24.842Z,9.52
2022-12-05T21:23:57.494Z,9.40
2022-12-05T21:26:25.562Z,9.58
2022-12-05T21:28:52.823Z,10.00
2022-12-05T21:31:29.339Z,10.13
2022-12-05T21:33:59.433Z,9.91
2022-12-05T21:36:28.574Z,9.82
2022-12-05T21:38:56.660Z,9.70
2022-12-05T21:41:26.736Z,9.61
2022-12-05T21:43:55.221Z,9.64
2022-12-05T21:46:26.639Z,9.89
2022-12-05T21:48:54.674Z,9.46
2022-12-05T21:51:22.546Z,9.48
2022-12-05T21:53:50.560Z,9.34
2022-12-05T21:56:19.810Z,9.54
2022-12-05T21:58:47.064Z,9.56
2022-12-05T22:01:19.284Z,9.45
2022-12-05T22:03:47.073Z,9.90
2022-12-05T22:06:17.016Z,9.80
2022-12-05T22:08:43.873Z,10.16
2022-12-05T22:11:16.838Z,10.18
2022-12-05T22:13:44.532Z,10.05
2022-12-05T22:16:12.861Z,10.00
2022-12-05T22:18:40.039Z,9.98
2022-12-05T22:21:10.292Z,9.70
2022-12-05T22:23:37.526Z,9.69
2022-12-05T22:26:10.410Z,9.90
2022-12-05T22:28:37.649Z,9.88
2022-12-05T22:31:07.181Z,10.09
2022-12-05T22:33:36.785Z,9.95
2022-12-05T22:36:06.748Z,10.05
2022-12-05T22:38:35.934Z,10.06
2022-12-05T22:41:06.367Z,9.92
2022-12-05T22:43:34.661Z,9.82
2022-12-05T22:46:09.571Z,9.66
2022-12-05T22:48:36.500Z,9.52
2022-12-05T22:51:05.126Z,10.04
2022-12-05T22:53:32.224Z,9.78
2022-12-05T22:56:08.103Z,9.56
2022-12-05T22:58:35.682Z,9.55
2022-12-05T23:01:10.733Z,9.41
2022-12-05T23:03:38.107Z,9.30
2022-12-05T23:06:11.285Z,9.29
2022-12-05T23:08:40.124Z,9.40
2022-12-05T23:11:08.042Z,9.46
2022-12-05T23:13:36.069Z,9.19
2022-12-05T23:16:11.571Z,9.20
2022-12-05T23:18:48.044Z,9.25
2022-12-05T23:21:22.001Z,9.25
2022-12-05T23:23:50.802Z,9.38
2022-12-05T23:26:19.403Z,9.33
2022-12-05T23:28:46.376Z,8.72
2022-12-05T23:31:13.651Z,8.97
2022-12-05T23:33:41.218Z,8.93
2022-12-05T23:36:09.348Z,9.09
2022-12-05T23:38:37.567Z,9.38
2022-12-05T23:41:13.564Z,9.77
2022-12-05T23:43:41.404Z,9.46
2022-12-05T23:46:09.475Z,9.42
2022-12-05T23:48:36.734Z,9.17
2022-12-05T23:51:08.858Z,9.07
2022-12-05T23:53:38.158Z,9.13
2022-12-05T23:56:11.378Z,9.23
2022-12-05T23:58:38.953Z,9.13
